sensor_id;sensor_type;location;lat;lon;timestamp;temperature;humidity
78696;SHT31;68030;51.980;5.646;2023-10-08T00:01:02;21.1;66.8
78696;SHT31;68030;51.980;5.646;2023-10-08T00:03:32;21.1;66.9
78696;SHT31;68030;51.980;5.646;2023-10-08T00:06:04;21.0;67.0
78696;SHT31;68030;51.980;5.646;2023-10-08T00:08:40;21.0;67.1
78696;SHT31;68030;51.980;5.646;2023-10-08T00:11:09;21.0;67.2
78696;SHT31;68030;51.980;5.646;2023-10-08T00:13:38;21.0;67.2
78696;SHT31;68030;51.980;5.646;2023-10-08T00:16:08;21.0;67.3
78696;SHT31;68030;51.980;5.646;2023-10-08T00:18:39;21.0;67.4
78696;SHT31;68030;51.980;5.646;2023-10-08T00:21:14;21.0;67.5
78696;SHT31;68030;51.980;5.646;2023-10-08T00:23:53;20.9;67.6
78696;SHT31;68030;51.980;5.646;2023-10-08T00:26:24;20.9;67.7
78696;SHT31;68030;51.980;5.646;2023-10-08T00:28:58;20.9;67.8
78696;SHT31;68030;51.980;5.646;2023-10-08T00:31:33;20.9;67.9
78696;SHT31;68030;51.980;5.646;2023-10-08T00:34:10;20.9;67.9
78696;SHT31;68030;51.980;5.646;2023-10-08T00:36:41;20.9;68.0
78696;SHT31;68030;51.980;5.646;2023-10-08T00:39:11;20.8;68.1
78696;SHT31;68030;51.980;5.646;2023-10-08T00:41:44;20.8;68.2
78696;SHT31;68030;51.980;5.646;2023-10-08T00:44:14;20.8;68.2
78696;SHT31;68030;51.980;5.646;2023-10-08T00:46:49;20.8;68.3
78696;SHT31;68030;51.980;5.646;2023-10-08T00:49:22;20.8;68.3
78696;SHT31;68030;51.980;5.646;2023-10-08T00:51:59;20.8;68.4
78696;SHT31;68030;51.980;5.646;2023-10-08T00:54:37;20.8;68.5
78696;SHT31;68030;51.980;5.646;2023-10-08T00:57:11;20.8;68.6
78696;SHT31;68030;51.980;5.646;2023-10-08T00:59:45;20.8;68.6
78696;SHT31;68030;51.980;5.646;2023-10-08T01:02:21;20.8;68.6
78696;SHT31;68030;51.980;5.646;2023-10-08T01:04:55;20.7;68.6
78696;SHT31;68030;51.980;5.646;2023-10-08T01:07:25;20.7;68.6
78696;SHT31;68030;51.980;5.646;2023-10-08T01:09:57;20.7;68.7
78696;SHT31;68030;51.980;5.646;2023-10-08T01:12:31;20.7;68.7
78696;SHT31;68030;51.980;5.646;2023-10-08T01:15:07;20.7;68.8
78696;SHT31;68030;51.980;5.646;2023-10-08T01:17:41;20.7;69.0
78696;SHT31;68030;51.980;5.646;2023-10-08T01:20:16;20.7;69.0
78696;SHT31;68030;51.980;5.646;2023-10-08T01:22:53;20.7;69.1
78696;SHT31;68030;51.980;5.646;2023-10-08T01:25:23;20.7;69.1
78696;SHT31;68030;51.980;5.646;2023-10-08T01:27:57;20.7;69.1
78696;SHT31;68030;51.980;5.646;2023-10-08T01:30:32;20.7;69.2
78696;SHT31;68030;51.980;5.646;2023-10-08T01:33:07;20.7;69.2
78696;SHT31;68030;51.980;5.646;2023-10-08T01:35:38;20.6;69.2
78696;SHT31;68030;51.980;5.646;2023-10-08T01:38:07;20.6;69.2
78696;SHT31;68030;51.980;5.646;2023-10-08T01:40:39;20.6;69.4
78696;SHT31;68030;51.980;5.646;2023-10-08T01:43:08;20.6;69.4
78696;SHT31;68030;51.980;5.646;2023-10-08T01:45:40;20.6;69.5
78696;SHT31;68030;51.980;5.646;2023-10-08T01:48:09;20.6;69.5
78696;SHT31;68030;51.980;5.646;2023-10-08T01:50:41;20.6;69.5
78696;SHT31;68030;51.980;5.646;2023-10-08T01:53:13;20.6;69.7
78696;SHT31;68030;51.980;5.646;2023-10-08T01:55:43;20.6;69.6
78696;SHT31;68030;51.980;5.646;2023-10-08T01:58:19;20.6;69.7
78696;SHT31;68030;51.980;5.646;2023-10-08T02:00:49;20.6;69.7
78696;SHT31;68030;51.980;5.646;2023-10-08T02:03:18;20.5;69.8
78696;SHT31;68030;51.980;5.646;2023-10-08T02:05:49;20.5;69.8
78696;SHT31;68030;51.980;5.646;2023-10-08T02:08:20;20.5;69.9
78696;SHT31;68030;51.980;5.646;2023-10-08T02:10:49;20.5;69.8
78696;SHT31;68030;51.980;5.646;2023-10-08T02:13:19;20.5;69.9
78696;SHT31;68030;51.980;5.646;2023-10-08T02:15:49;20.5;69.8
78696;SHT31;68030;51.980;5.646;2023-10-08T02:18:18;20.5;69.8
78696;SHT31;68030;51.980;5.646;2023-10-08T02:20:51;20.5;69.8
78696;SHT31;68030;51.980;5.646;2023-10-08T02:23:20;20.5;69.8
78696;SHT31;68030;51.980;5.646;2023-10-08T02:25:48;20.5;69.9
78696;SHT31;68030;51.980;5.646;2023-10-08T02:28:16;20.5;69.9
78696;SHT31;68030;51.980;5.646;2023-10-08T02:30:47;20.5;69.8
78696;SHT31;68030;51.980;5.646;2023-10-08T02:33:15;20.5;69.9
78696;SHT31;68030;51.980;5.646;2023-10-08T02:35:46;20.5;69.8
78696;SHT31;68030;51.980;5.646;2023-10-08T02:38:17;20.5;69.9
78696;SHT31;68030;51.980;5.646;2023-10-08T02:40:47;20.5;69.8
78696;SHT31;68030;51.980;5.646;2023-10-08T02:43:20;20.5;69.8
78696;SHT31;68030;51.980;5.646;2023-10-08T02:45:49;20.5;69.8
78696;SHT31;68030;51.980;5.646;2023-10-08T02:48:19;20.4;69.8
78696;SHT31;68030;51.980;5.646;2023-10-08T02:50:47;20.4;69.9
78696;SHT31;68030;51.980;5.646;2023-10-08T02:53:15;20.4;69.9
78696;SHT31;68030;51.980;5.646;2023-10-08T02:55:47;20.4;69.9
78696;SHT31;68030;51.980;5.646;2023-10-08T02:58:16;20.4;69.9
78696;SHT31;68030;51.980;5.646;2023-10-08T03:00:47;20.4;70.0
78696;SHT31;68030;51.980;5.646;2023-10-08T03:03:17;20.4;69.9
78696;SHT31;68030;51.980;5.646;2023-10-08T03:05:48;20.4;70.1
78696;SHT31;68030;51.980;5.646;2023-10-08T03:08:18;20.4;70.1
78696;SHT31;68030;51.980;5.646;2023-10-08T03:10:48;20.4;70.1
78696;SHT31;68030;51.980;5.646;2023-10-08T03:13:22;20.3;70.1
78696;SHT31;68030;51.980;5.646;2023-10-08T03:15:52;20.3;70.3
78696;SHT31;68030;51.980;5.646;2023-10-08T03:18:31;20.3;70.2
78696;SHT31;68030;51.980;5.646;2023-10-08T03:21:04;20.3;70.3
78696;SHT31;68030;51.980;5.646;2023-10-08T03:23:40;20.3;70.3
78696;SHT31;68030;51.980;5.646;2023-10-08T03:26:14;20.3;70.4
78696;SHT31;68030;51.980;5.646;2023-10-08T03:28:51;20.3;70.5
78696;SHT31;68030;51.980;5.646;2023-10-08T03:31:24;20.3;70.4
78696;SHT31;68030;51.980;5.646;2023-10-08T03:33:59;20.3;70.4
78696;SHT31;68030;51.980;5.646;2023-10-08T03:36:29;20.3;70.3
78696;SHT31;68030;51.980;5.646;2023-10-08T03:39:00;20.3;70.4
78696;SHT31;68030;51.980;5.646;2023-10-08T03:41:35;20.3;70.4
78696;SHT31;68030;51.980;5.646;2023-10-08T03:44:07;20.3;70.3
78696;SHT31;68030;51.980;5.646;2023-10-08T03:46:43;20.3;70.4
78696;SHT31;68030;51.980;5.646;2023-10-08T03:49:14;20.3;70.5
78696;SHT31;68030;51.980;5.646;2023-10-08T03:51:48;20.3;70.6
78696;SHT31;68030;51.980;5.646;2023-10-08T03:54:18;20.3;70.6
78696;SHT31;68030;51.980;5.646;2023-10-08T03:56:52;20.2;70.6
78696;SHT31;68030;51.980;5.646;2023-10-08T03:59:20;20.2;70.6
78696;SHT31;68030;51.980;5.646;2023-10-08T04:01:56;20.2;70.7
78696;SHT31;68030;51.980;5.646;2023-10-08T04:04:25;20.2;70.7
78696;SHT31;68030;51.980;5.646;2023-10-08T04:06:59;20.2;70.7
78696;SHT31;68030;51.980;5.646;2023-10-08T04:09:47;20.2;70.8
78696;SHT31;68030;51.980;5.646;2023-10-08T04:12:21;20.2;70.8
78696;SHT31;68030;51.980;5.646;2023-10-08T04:14:53;20.2;70.8
78696;SHT31;68030;51.980;5.646;2023-10-08T04:17:22;20.2;70.8
78696;SHT31;68030;51.980;5.646;2023-10-08T04:19:51;20.2;70.9
78696;SHT31;68030;51.980;5.646;2023-10-08T04:22:19;20.2;70.9
78696;SHT31;68030;51.980;5.646;2023-10-08T04:24:48;20.2;71.0
78696;SHT31;68030;51.980;5.646;2023-10-08T04:27:16;20.2;70.9
78696;SHT31;68030;51.980;5.646;2023-10-08T04:29:48;20.2;70.9
78696;SHT31;68030;51.980;5.646;2023-10-08T04:32:17;20.2;70.9
78696;SHT31;68030;51.980;5.646;2023-10-08T04:34:50;20.2;70.8
78696;SHT31;68030;51.980;5.646;2023-10-08T04:37:23;20.2;70.8
78696;SHT31;68030;51.980;5.646;2023-10-08T04:39:56;20.2;70.8
78696;SHT31;68030;51.980;5.646;2023-10-08T04:42:25;20.2;70.9
78696;SHT31;68030;51.980;5.646;2023-10-08T04:44:54;20.2;71.1
78696;SHT31;68030;51.980;5.646;2023-10-08T04:47:24;20.2;71.0
78696;SHT31;68030;51.980;5.646;2023-10-08T04:50:02;20.2;71.0
78696;SHT31;68030;51.980;5.646;2023-10-08T04:52:32;20.2;71.0
78696;SHT31;68030;51.980;5.646;2023-10-08T04:55:08;20.2;71.0
78696;SHT31;68030;51.980;5.646;2023-10-08T04:57:45;20.2;71.0
78696;SHT31;68030;51.980;5.646;2023-10-08T05:00:16;20.2;71.0
78696;SHT31;68030;51.980;5.646;2023-10-08T05:02:50;20.2;71.1
78696;SHT31;68030;51.980;5.646;2023-10-08T05:05:22;20.2;71.1
78696;SHT31;68030;51.980;5.646;2023-10-08T05:07:55;20.2;71.1
78696;SHT31;68030;51.980;5.646;2023-10-08T05:10:34;20.2;71.1
78696;SHT31;68030;51.980;5.646;2023-10-08T05:13:19;20.2;71.2
78696;SHT31;68030;51.980;5.646;2023-10-08T05:15:52;20.2;71.3
78696;SHT31;68030;51.980;5.646;2023-10-08T05:18:35;20.2;70.4
78696;SHT31;68030;51.980;5.646;2023-10-08T05:21:19;20.1;69.5
78696;SHT31;68030;51.980;5.646;2023-10-08T05:23:58;20.1;69.0
78696;SHT31;68030;51.980;5.646;2023-10-08T05:26:40;20.0;68.6
78696;SHT31;68030;51.980;5.646;2023-10-08T05:29:17;20.0;68.0
78696;SHT31;68030;51.980;5.646;2023-10-08T05:32:12;19.9;68.0
78696;SHT31;68030;51.980;5.646;2023-10-08T05:35:04;19.8;67.3
78696;SHT31;68030;51.980;5.646;2023-10-08T05:38:04;19.7;67.0
78696;SHT31;68030;51.980;5.646;2023-10-08T05:40:45;19.6;67.2
78696;SHT31;68030;51.980;5.646;2023-10-08T05:43:39;19.5;66.3
78696;SHT31;68030;51.980;5.646;2023-10-08T05:46:22;19.4;65.7
78696;SHT31;68030;51.980;5.646;2023-10-08T05:51:08;19.2;65.7
78696;SHT31;68030;51.980;5.646;2023-10-08T05:53:46;19.1;65.9
78696;SHT31;68030;51.980;5.646;2023-10-08T05:56:21;19.0;66.2
78696;SHT31;68030;51.980;5.646;2023-10-08T05:59:01;18.9;66.9
78696;SHT31;68030;51.980;5.646;2023-10-08T06:01:39;18.8;67.1
78696;SHT31;68030;51.980;5.646;2023-10-08T06:04:09;18.7;67.4
78696;SHT31;68030;51.980;5.646;2023-10-08T06:06:54;18.7;67.4
78696;SHT31;68030;51.980;5.646;2023-10-08T06:09:31;18.6;67.7
78696;SHT31;68030;51.980;5.646;2023-10-08T06:12:06;18.5;67.4
78696;SHT31;68030;51.980;5.646;2023-10-08T06:14:37;18.5;67.1
78696;SHT31;68030;51.980;5.646;2023-10-08T06:17:25;18.4;67.5
78696;SHT31;68030;51.980;5.646;2023-10-08T06:20:08;18.3;67.3
78696;SHT31;68030;51.980;5.646;2023-10-08T06:22:43;18.3;67.6
78696;SHT31;68030;51.980;5.646;2023-10-08T06:25:12;18.2;67.6
78696;SHT31;68030;51.980;5.646;2023-10-08T06:27:49;18.1;67.8
78696;SHT31;68030;51.980;5.646;2023-10-08T06:30:22;18.1;67.6
78696;SHT31;68030;51.980;5.646;2023-10-08T06:32:55;18.0;67.8
78696;SHT31;68030;51.980;5.646;2023-10-08T06:35:27;18.0;67.9
78696;SHT31;68030;51.980;5.646;2023-10-08T06:37:58;17.9;67.7
78696;SHT31;68030;51.980;5.646;2023-10-08T06:40:32;17.9;67.6
78696;SHT31;68030;51.980;5.646;2023-10-08T06:43:11;17.8;67.3
78696;SHT31;68030;51.980;5.646;2023-10-08T06:45:42;17.8;67.7
78696;SHT31;68030;51.980;5.646;2023-10-08T06:48:14;17.7;67.7
78696;SHT31;68030;51.980;5.646;2023-10-08T06:50:51;17.7;68.6
78696;SHT31;68030;51.980;5.646;2023-10-08T06:53:23;17.6;68.3
78696;SHT31;68030;51.980;5.646;2023-10-08T06:55:56;17.6;68.1
78696;SHT31;68030;51.980;5.646;2023-10-08T06:58:29;17.6;68.0
78696;SHT31;68030;51.980;5.646;2023-10-08T07:01:01;17.6;68.0
78696;SHT31;68030;51.980;5.646;2023-10-08T07:03:36;17.6;68.7
78696;SHT31;68030;51.980;5.646;2023-10-08T07:06:06;17.6;68.4
78696;SHT31;68030;51.980;5.646;2023-10-08T07:08:49;17.6;67.6
78696;SHT31;68030;51.980;5.646;2023-10-08T07:11:22;17.5;67.6
78696;SHT31;68030;51.980;5.646;2023-10-08T07:13:53;17.5;68.2
78696;SHT31;68030;51.980;5.646;2023-10-08T07:16:22;17.5;67.0
78696;SHT31;68030;51.980;5.646;2023-10-08T07:18:50;17.5;66.9
78696;SHT31;68030;51.980;5.646;2023-10-08T07:21:22;17.5;66.8
78696;SHT31;68030;51.980;5.646;2023-10-08T07:23:57;17.5;67.0
78696;SHT31;68030;51.980;5.646;2023-10-08T07:26:26;17.5;66.9
78696;SHT31;68030;51.980;5.646;2023-10-08T07:29:00;17.5;66.9
78696;SHT31;68030;51.980;5.646;2023-10-08T07:31:31;17.5;66.7
78696;SHT31;68030;51.980;5.646;2023-10-08T07:34:00;17.5;66.9
78696;SHT31;68030;51.980;5.646;2023-10-08T07:36:34;17.5;67.0
78696;SHT31;68030;51.980;5.646;2023-10-08T07:39:03;17.5;67.2
78696;SHT31;68030;51.980;5.646;2023-10-08T07:41:35;17.5;66.9
78696;SHT31;68030;51.980;5.646;2023-10-08T07:44:03;17.5;67.1
78696;SHT31;68030;51.980;5.646;2023-10-08T07:46:34;17.5;67.0
78696;SHT31;68030;51.980;5.646;2023-10-08T07:49:02;17.5;67.1
78696;SHT31;68030;51.980;5.646;2023-10-08T07:51:34;17.5;67.4
78696;SHT31;68030;51.980;5.646;2023-10-08T07:54:04;17.5;66.7
78696;SHT31;68030;51.980;5.646;2023-10-08T07:56:38;17.5;66.4
78696;SHT31;68030;51.980;5.646;2023-10-08T07:59:07;17.6;67.1
78696;SHT31;68030;51.980;5.646;2023-10-08T08:01:41;17.6;66.3
78696;SHT31;68030;51.980;5.646;2023-10-08T08:04:11;17.6;66.7
78696;SHT31;68030;51.980;5.646;2023-10-08T08:06:45;17.6;66.6
78696;SHT31;68030;51.980;5.646;2023-10-08T08:09:16;17.6;66.4
78696;SHT31;68030;51.980;5.646;2023-10-08T08:11:46;17.7;66.8
78696;SHT31;68030;51.980;5.646;2023-10-08T08:14:16;17.7;66.9
78696;SHT31;68030;51.980;5.646;2023-10-08T08:16:50;17.7;66.1
78696;SHT31;68030;51.980;5.646;2023-10-08T08:19:18;17.8;65.7
78696;SHT31;68030;51.980;5.646;2023-10-08T08:21:52;17.8;65.6
78696;SHT31;68030;51.980;5.646;2023-10-08T08:24:23;17.9;65.3
78696;SHT31;68030;51.980;5.646;2023-10-08T08:27:01;17.9;65.0
78696;SHT31;68030;51.980;5.646;2023-10-08T08:29:35;17.9;65.7
78696;SHT31;68030;51.980;5.646;2023-10-08T08:32:10;18.0;66.0
78696;SHT31;68030;51.980;5.646;2023-10-08T08:34:42;18.0;65.7
78696;SHT31;68030;51.980;5.646;2023-10-08T08:37:12;18.0;65.1
78696;SHT31;68030;51.980;5.646;2023-10-08T08:39:40;18.1;65.3
78696;SHT31;68030;51.980;5.646;2023-10-08T08:42:09;18.1;65.3
78696;SHT31;68030;51.980;5.646;2023-10-08T08:44:42;18.1;64.8
78696;SHT31;68030;51.980;5.646;2023-10-08T08:47:13;18.1;64.8
78696;SHT31;68030;51.980;5.646;2023-10-08T08:49:44;18.1;65.1
78696;SHT31;68030;51.980;5.646;2023-10-08T08:52:14;18.2;64.8
78696;SHT31;68030;51.980;5.646;2023-10-08T08:54:43;18.2;64.6
78696;SHT31;68030;51.980;5.646;2023-10-08T08:57:12;18.2;65.3
78696;SHT31;68030;51.980;5.646;2023-10-08T08:59:52;18.2;64.9
78696;SHT31;68030;51.980;5.646;2023-10-08T09:02:23;18.2;64.9
78696;SHT31;68030;51.980;5.646;2023-10-08T09:04:52;18.2;64.8
78696;SHT31;68030;51.980;5.646;2023-10-08T09:07:21;18.2;65.3
78696;SHT31;68030;51.980;5.646;2023-10-08T09:09:50;18.2;65.2
78696;SHT31;68030;51.980;5.646;2023-10-08T09:12:23;18.2;65.4
78696;SHT31;68030;51.980;5.646;2023-10-08T09:14:52;18.1;66.4
78696;SHT31;68030;51.980;5.646;2023-10-08T09:17:20;18.1;66.2
78696;SHT31;68030;51.980;5.646;2023-10-08T09:19:53;18.2;66.7
78696;SHT31;68030;51.980;5.646;2023-10-08T09:22:23;18.2;67.1
78696;SHT31;68030;51.980;5.646;2023-10-08T09:24:54;18.2;66.6
78696;SHT31;68030;51.980;5.646;2023-10-08T09:27:28;18.3;66.2
78696;SHT31;68030;51.980;5.646;2023-10-08T09:29:59;18.4;66.4
78696;SHT31;68030;51.980;5.646;2023-10-08T09:32:39;18.4;66.4
78696;SHT31;68030;51.980;5.646;2023-10-08T09:35:10;18.5;65.8
78696;SHT31;68030;51.980;5.646;2023-10-08T09:37:45;18.5;65.5
78696;SHT31;68030;51.980;5.646;2023-10-08T09:40:14;18.5;66.0
78696;SHT31;68030;51.980;5.646;2023-10-08T09:42:49;18.6;65.8
78696;SHT31;68030;51.980;5.646;2023-10-08T09:45:18;18.7;65.7
78696;SHT31;68030;51.980;5.646;2023-10-08T09:47:50;18.8;65.6
78696;SHT31;68030;51.980;5.646;2023-10-08T09:50:27;18.8;64.3
78696;SHT31;68030;51.980;5.646;2023-10-08T09:53:07;18.9;62.7
78696;SHT31;68030;51.980;5.646;2023-10-08T09:55:44;19.0;63.1
78696;SHT31;68030;51.980;5.646;2023-10-08T09:58:16;19.0;61.8
78696;SHT31;68030;51.980;5.646;2023-10-08T10:00:49;19.1;61.6
78696;SHT31;68030;51.980;5.646;2023-10-08T10:03:19;19.2;60.6
78696;SHT31;68030;51.980;5.646;2023-10-08T10:05:50;19.2;60.4
78696;SHT31;68030;51.980;5.646;2023-10-08T10:08:20;19.2;60.5
78696;SHT31;68030;51.980;5.646;2023-10-08T10:10:59;19.2;61.0
78696;SHT31;68030;51.980;5.646;2023-10-08T10:13:34;19.2;60.9
78696;SHT31;68030;51.980;5.646;2023-10-08T10:16:05;19.2;60.6
78696;SHT31;68030;51.980;5.646;2023-10-08T10:18:35;19.2;60.4
78696;SHT31;68030;51.980;5.646;2023-10-08T10:21:28;19.2;60.3
78696;SHT31;68030;51.980;5.646;2023-10-08T10:23:57;19.3;59.8
78696;SHT31;68030;51.980;5.646;2023-10-08T10:26:28;19.3;59.2
78696;SHT31;68030;51.980;5.646;2023-10-08T10:29:44;19.3;59.0
78696;SHT31;68030;51.980;5.646;2023-10-08T10:32:16;19.3;58.2
78696;SHT31;68030;51.980;5.646;2023-10-08T10:34:45;19.3;58.8
78696;SHT31;68030;51.980;5.646;2023-10-08T10:37:21;19.4;58.3
78696;SHT31;68030;51.980;5.646;2023-10-08T10:39:55;19.4;58.1
78696;SHT31;68030;51.980;5.646;2023-10-08T10:42:26;19.4;58.1
78696;SHT31;68030;51.980;5.646;2023-10-08T10:44:55;19.4;57.9
78696;SHT31;68030;51.980;5.646;2023-10-08T10:47:25;19.4;58.3
78696;SHT31;68030;51.980;5.646;2023-10-08T10:50:01;19.5;58.2
78696;SHT31;68030;51.980;5.646;2023-10-08T10:52:46;19.5;58.5
78696;SHT31;68030;51.980;5.646;2023-10-08T10:55:20;19.5;58.1
78696;SHT31;68030;51.980;5.646;2023-10-08T10:57:56;19.5;57.7
78696;SHT31;68030;51.980;5.646;2023-10-08T11:00:31;19.5;58.2
78696;SHT31;68030;51.980;5.646;2023-10-08T11:03:24;19.5;57.8
78696;SHT31;68030;51.980;5.646;2023-10-08T11:05:57;19.5;58.1
78696;SHT31;68030;51.980;5.646;2023-10-08T11:08:33;19.5;58.7
78696;SHT31;68030;51.980;5.646;2023-10-08T11:11:04;19.6;58.8
78696;SHT31;68030;51.980;5.646;2023-10-08T11:13:36;19.6;58.7
78696;SHT31;68030;51.980;5.646;2023-10-08T11:16:08;19.6;58.8
78696;SHT31;68030;51.980;5.646;2023-10-08T11:18:44;19.6;58.9
78696;SHT31;68030;51.980;5.646;2023-10-08T11:21:17;19.7;58.8
78696;SHT31;68030;51.980;5.646;2023-10-08T11:23:52;19.7;58.5
78696;SHT31;68030;51.980;5.646;2023-10-08T11:26:23;19.7;58.4
78696;SHT31;68030;51.980;5.646;2023-10-08T11:29:02;19.7;58.2
78696;SHT31;68030;51.980;5.646;2023-10-08T11:31:32;19.7;58.1
78696;SHT31;68030;51.980;5.646;2023-10-08T11:34:03;19.7;58.6
78696;SHT31;68030;51.980;5.646;2023-10-08T11:36:39;19.7;58.3
78696;SHT31;68030;51.980;5.646;2023-10-08T11:39:22;19.7;58.7
78696;SHT31;68030;51.980;5.646;2023-10-08T11:42:00;19.7;58.5
78696;SHT31;68030;51.980;5.646;2023-10-08T11:44:36;19.7;58.5
78696;SHT31;68030;51.980;5.646;2023-10-08T11:47:06;19.8;58.5
78696;SHT31;68030;51.980;5.646;2023-10-08T11:49:44;19.8;59.1
78696;SHT31;68030;51.980;5.646;2023-10-08T11:52:17;19.8;58.2
78696;SHT31;68030;51.980;5.646;2023-10-08T11:54:47;19.8;58.1
78696;SHT31;68030;51.980;5.646;2023-10-08T11:57:19;19.9;57.9
78696;SHT31;68030;51.980;5.646;2023-10-08T11:59:49;19.9;58.2
78696;SHT31;68030;51.980;5.646;2023-10-08T12:02:20;19.9;57.9
78696;SHT31;68030;51.980;5.646;2023-10-08T12:04:49;19.9;58.2
78696;SHT31;68030;51.980;5.646;2023-10-08T12:07:18;19.9;58.3
78696;SHT31;68030;51.980;5.646;2023-10-08T12:09:46;19.9;57.9
78696;SHT31;68030;51.980;5.646;2023-10-08T12:12:15;19.9;58.0
78696;SHT31;68030;51.980;5.646;2023-10-08T12:14:49;19.9;58.1
78696;SHT31;68030;51.980;5.646;2023-10-08T12:17:21;19.9;57.7
78696;SHT31;68030;51.980;5.646;2023-10-08T12:19:54;19.9;57.5
78696;SHT31;68030;51.980;5.646;2023-10-08T12:22:22;19.9;57.9
78696;SHT31;68030;51.980;5.646;2023-10-08T12:24:52;19.9;57.5
78696;SHT31;68030;51.980;5.646;2023-10-08T12:27:21;19.9;58.2
78696;SHT31;68030;51.980;5.646;2023-10-08T12:29:53;19.9;58.2
78696;SHT31;68030;51.980;5.646;2023-10-08T12:32:25;20.0;58.4
78696;SHT31;68030;51.980;5.646;2023-10-08T12:34:54;20.1;58.4
78696;SHT31;68030;51.980;5.646;2023-10-08T12:37:22;20.1;58.3
78696;SHT31;68030;51.980;5.646;2023-10-08T12:39:50;20.2;58.0
78696;SHT31;68030;51.980;5.646;2023-10-08T12:42:26;20.3;57.6
78696;SHT31;68030;51.980;5.646;2023-10-08T12:44:56;20.4;57.2
78696;SHT31;68030;51.980;5.646;2023-10-08T12:47:28;20.5;56.8
78696;SHT31;68030;51.980;5.646;2023-10-08T12:49:56;20.6;56.6
78696;SHT31;68030;51.980;5.646;2023-10-08T12:52:26;20.6;56.8
78696;SHT31;68030;51.980;5.646;2023-10-08T12:54:55;20.7;56.7
78696;SHT31;68030;51.980;5.646;2023-10-08T12:57:28;20.7;56.9
78696;SHT31;68030;51.980;5.646;2023-10-08T13:00:00;20.7;57.3
78696;SHT31;68030;51.980;5.646;2023-10-08T13:02:29;20.7;57.3
78696;SHT31;68030;51.980;5.646;2023-10-08T13:05:03;20.7;57.5
78696;SHT31;68030;51.980;5.646;2023-10-08T13:07:37;20.8;57.8
78696;SHT31;68030;51.980;5.646;2023-10-08T13:10:09;20.8;58.3
78696;SHT31;68030;51.980;5.646;2023-10-08T13:12:41;20.8;58.1
78696;SHT31;68030;51.980;5.646;2023-10-08T13:15:10;20.9;57.7
78696;SHT31;68030;51.980;5.646;2023-10-08T13:17:39;20.9;57.6
78696;SHT31;68030;51.980;5.646;2023-10-08T13:20:10;20.9;58.0
78696;SHT31;68030;51.980;5.646;2023-10-08T13:22:41;21.0;58.2
78696;SHT31;68030;51.980;5.646;2023-10-08T13:25:10;21.0;57.9
78696;SHT31;68030;51.980;5.646;2023-10-08T13:27:39;21.0;58.0
78696;SHT31;68030;51.980;5.646;2023-10-08T13:30:09;21.0;58.2
78696;SHT31;68030;51.980;5.646;2023-10-08T13:32:39;21.0;58.7
78696;SHT31;68030;51.980;5.646;2023-10-08T13:35:09;21.0;58.7
78696;SHT31;68030;51.980;5.646;2023-10-08T13:37:39;21.0;58.7
78696;SHT31;68030;51.980;5.646;2023-10-08T13:40:12;21.0;58.4
78696;SHT31;68030;51.980;5.646;2023-10-08T13:42:42;21.0;58.3
78696;SHT31;68030;51.980;5.646;2023-10-08T13:45:11;21.0;58.5
78696;SHT31;68030;51.980;5.646;2023-10-08T13:47:46;21.0;58.4
78696;SHT31;68030;51.980;5.646;2023-10-08T13:50:14;21.0;58.4
78696;SHT31;68030;51.980;5.646;2023-10-08T13:52:44;21.0;58.4
78696;SHT31;68030;51.980;5.646;2023-10-08T13:55:14;21.0;59.0
78696;SHT31;68030;51.980;5.646;2023-10-08T13:57:45;21.0;59.2
78696;SHT31;68030;51.980;5.646;2023-10-08T14:00:16;21.0;59.0
78696;SHT31;68030;51.980;5.646;2023-10-08T14:02:51;21.0;58.8
78696;SHT31;68030;51.980;5.646;2023-10-08T14:05:21;21.0;59.0
78696;SHT31;68030;51.980;5.646;2023-10-08T14:07:51;21.0;59.0
78696;SHT31;68030;51.980;5.646;2023-10-08T14:10:19;21.0;59.4
78696;SHT31;68030;51.980;5.646;2023-10-08T14:12:52;21.0;59.5
78696;SHT31;68030;51.980;5.646;2023-10-08T14:15:23;21.0;59.3
78696;SHT31;68030;51.980;5.646;2023-10-08T14:17:55;21.0;59.0
78696;SHT31;68030;51.980;5.646;2023-10-08T14:20:27;20.9;59.6
78696;SHT31;68030;51.980;5.646;2023-10-08T14:22:58;20.9;59.7
78696;SHT31;68030;51.980;5.646;2023-10-08T14:25:29;20.9;59.5
78696;SHT31;68030;51.980;5.646;2023-10-08T14:28:00;20.8;59.6
78696;SHT31;68030;51.980;5.646;2023-10-08T14:30:37;20.8;60.1
78696;SHT31;68030;51.980;5.646;2023-10-08T14:33:08;20.8;59.7
78696;SHT31;68030;51.980;5.646;2023-10-08T14:35:39;20.8;59.8
78696;SHT31;68030;51.980;5.646;2023-10-08T14:38:25;20.7;60.1
78696;SHT31;68030;51.980;5.646;2023-10-08T14:41:10;20.7;60.4
78696;SHT31;68030;51.980;5.646;2023-10-08T14:43:55;20.7;60.1
78696;SHT31;68030;51.980;5.646;2023-10-08T14:46:24;20.7;60.6
78696;SHT31;68030;51.980;5.646;2023-10-08T14:48:53;20.7;60.8
78696;SHT31;68030;51.980;5.646;2023-10-08T14:51:22;20.6;60.5
78696;SHT31;68030;51.980;5.646;2023-10-08T14:53:51;20.6;60.7
78696;SHT31;68030;51.980;5.646;2023-10-08T14:56:19;20.6;60.6
78696;SHT31;68030;51.980;5.646;2023-10-08T14:58:49;20.6;60.8
78696;SHT31;68030;51.980;5.646;2023-10-08T15:01:18;20.6;61.0
78696;SHT31;68030;51.980;5.646;2023-10-08T15:03:46;20.6;61.1
78696;SHT31;68030;51.980;5.646;2023-10-08T15:06:17;20.6;61.5
78696;SHT31;68030;51.980;5.646;2023-10-08T15:08:47;20.6;60.8
78696;SHT31;68030;51.980;5.646;2023-10-08T15:11:16;20.6;60.7
78696;SHT31;68030;51.980;5.646;2023-10-08T15:13:45;20.6;60.8
78696;SHT31;68030;51.980;5.646;2023-10-08T15:16:16;20.6;61.2
78696;SHT31;68030;51.980;5.646;2023-10-08T15:18:47;20.5;61.6
78696;SHT31;68030;51.980;5.646;2023-10-08T15:21:15;20.5;61.3
78696;SHT31;68030;51.980;5.646;2023-10-08T15:23:44;20.5;61.4
78696;SHT31;68030;51.980;5.646;2023-10-08T15:26:13;20.5;61.7
78696;SHT31;68030;51.980;5.646;2023-10-08T15:28:45;20.5;62.3
78696;SHT31;68030;51.980;5.646;2023-10-08T15:31:16;20.5;62.5
78696;SHT31;68030;51.980;5.646;2023-10-08T15:33:45;20.5;62.2
78696;SHT31;68030;51.980;5.646;2023-10-08T15:36:15;20.5;62.2
78696;SHT31;68030;51.980;5.646;2023-10-08T15:38:43;20.5;62.2
78696;SHT31;68030;51.980;5.646;2023-10-08T15:41:12;20.5;62.1
78696;SHT31;68030;51.980;5.646;2023-10-08T15:43:50;20.5;62.2
78696;SHT31;68030;51.980;5.646;2023-10-08T15:46:20;20.5;61.8
78696;SHT31;68030;51.980;5.646;2023-10-08T15:48:51;20.5;61.8
78696;SHT31;68030;51.980;5.646;2023-10-08T15:51:19;20.5;61.9
78696;SHT31;68030;51.980;5.646;2023-10-08T15:53:47;20.5;62.0
78696;SHT31;68030;51.980;5.646;2023-10-08T15:56:17;20.4;62.1
78696;SHT31;68030;51.980;5.646;2023-10-08T15:58:45;20.4;62.1
78696;SHT31;68030;51.980;5.646;2023-10-08T16:01:14;20.4;62.0
78696;SHT31;68030;51.980;5.646;2023-10-08T16:03:42;20.4;61.7
78696;SHT31;68030;51.980;5.646;2023-10-08T16:06:11;20.4;61.7
78696;SHT31;68030;51.980;5.646;2023-10-08T16:08:40;20.3;61.9
78696;SHT31;68030;51.980;5.646;2023-10-08T16:11:09;20.3;61.9
78696;SHT31;68030;51.980;5.646;2023-10-08T16:13:37;20.3;62.0
78696;SHT31;68030;51.980;5.646;2023-10-08T16:16:09;20.2;62.2
78696;SHT31;68030;51.980;5.646;2023-10-08T16:18:37;20.2;62.4
78696;SHT31;68030;51.980;5.646;2023-10-08T16:21:07;20.2;62.2
78696;SHT31;68030;51.980;5.646;2023-10-08T16:23:38;20.2;62.0
78696;SHT31;68030;51.980;5.646;2023-10-08T16:26:09;20.2;61.8
78696;SHT31;68030;51.980;5.646;2023-10-08T16:28:37;20.1;62.0
78696;SHT31;68030;51.980;5.646;2023-10-08T16:31:06;20.1;62.0
78696;SHT31;68030;51.980;5.646;2023-10-08T16:33:35;20.1;62.2
78696;SHT31;68030;51.980;5.646;2023-10-08T16:36:04;20.1;62.3
78696;SHT31;68030;51.980;5.646;2023-10-08T16:38:36;20.0;62.4